Hauptseite
METAR-TAF:

METAR-TAF

Flughäfen :

Heeresflugplatz Bückeburg

Bückeburg, Deutschland

Breite: 52-17N, Länge: 009-05E, Höhe: 70 m

Beobachtung

Neuester Wetterbericht von vor 1 Stunde und 7 Minuten, um 18:20 UTC
Wind 3 kt aus West/Nordwest
Temperatur 27°C
Luftfeuchtigkeit 30%
Luftdruck 1016 hPa
Sichtweite 10 km oder mehr
Leicht bewölkt in der Höhe von 30000 ft

METAR: ETHB 051820Z 29003KT 9999 FEW300 27/08 Q1016 BLACKBLU+

Zeit: 21:27 (19:27 UTC)

Prognose

Neuester Wetterbericht von vor 6 Stunden und 19 Minuten, um 13:08 UTC
Gültige Prognose vom 05 um 14 UTC bis 05 um 23 UTC
Wind 8 kt aus Süd/Südwest
Sichtweite 10 km oder mehr
Himmel klar

TAF: ETHB 051308Z 0514/0523 21008KT 9999 NSW SKC

Wetterbeobachtungen und Prognosen von mehr als 4000 Flughäfen (METAR und TAF Bericht).

Die verfügbaren Stationen werden durch gelbe und rote Markierungen auf der Karte dargestellt.

Führen Sie die Maus auf sie, um den Namen der Station zu sehen.

Darauf klicken, um die Beobachtung von Wetterbeobachtungen und Prognosen zu sehen.

Um die Karte zu ändern : klicken Sie auf den grünen Tasten mit einem schwarzen Kreuz Zum Vergrößern, auf den grünen Button mit einem Gedankenstrich zu verkleinern, oder auf die grünen Pfeile für benachbarte Karten.


METAR-TAF: